WFDK1: Walnut River, Winfield, KS

Data processed at Sat Oct 13 2018 23:32


All information presented herein is the property of the government of the United States of America and may be revised or deleted at any time without prior notice.
Dissemination of this information without the expressed written consent of the Public Affairs Office, Tulsa District U.S. Army Corps of Engineers is strictly prohibited.
These data are gathered electronically and, as presented, have not undergone any form of quality control. These data are not guaranteed to be valid or correct.
Go to home page.
Go to station list.
Go to home page.

Upstream stations:

Downstream station:
Previous Day
Next Day
Current Day
    
SHEF ID:       WFDK1     WALNUT R AT WINFIELD, KS
STATION TYPE:  

               PRECIP     STAGE  RIV-FLOW  BAT-LOAD
                   in        ft       cfs      volt
              Ccp-Rev   Ccp-Rev   Ccp-Rev   Ccp-Rev
(US/Central)
10/13 00:00      0.00     13.33     11421     12.57
10/13 01:00      0.00     13.08     11101     12.57
10/13 02:00      0.00     12.96     10947     12.57
10/13 03:00      0.00     12.73     10655     12.57
10/13 04:00      0.00     12.65     10554     12.57
10/13 05:00      0.00     12.49     10353     12.57
10/13 06:00      0.00     12.40     10240     12.49
10/13 07:00      0.01     12.30     10115     12.49
10/13 08:00      0.00     12.21     10003     12.49
10/13 09:00      0.00     12.07      9829     12.49
10/13 10:00      0.00     12.04      9792     12.57
10/13 11:00      0.00     11.99      9731     12.65
10/13 12:00      0.00     11.90      9620     12.65
10/13 13:00      0.00     11.86      9570     12.73
10/13 14:00      0.00     11.80      9497     13.13
10/13 15:00      0.00     11.70      9374     13.37
10/13 16:00      0.00     11.65      9313     13.60
10/13 17:00      0.00     11.61      9264     13.60
10/13 18:00      0.00     11.49      9118     13.05
10/13 19:00      0.00     11.44      9058     12.89
10/13 20:00      0.00     11.42      9033     12.57
10/13 21:00      0.01     11.37      8973     12.81
10/13 22:00      0.00     11.29      8876     12.81
10/13 23:00      0.00     11.23      8804     12.81